Time;durP1;ratioP1;P1;durP2;ratioP2;P2;SDS_P1;SDS_P2;PMS_P1;PMS_P2;Temp;Humidity;BMP_temperature;BMP_pressure;BME280_temperature;BME280_humidity;BME280_pressure;Samples;Min_cycle;Max_cycle;Signal;HPM_P1;HPM_P2
2023/02/15 00:00:41;;;;;;;;;;;;;;;;;;5095179;27;19947;-83
2023/02/15 00:03:07;;;;;;;;;;;;;;;;;;5076424;28;19920;-81
2023/02/15 00:05:32;;;;;;;;;;;;;;;;;;5095298;27;19927;-81
2023/02/15 00:07:58;;;;;;;;;;;;;;;;;;5090256;27;19932;-82
2023/02/15 00:10:24;;;;;;;;;;;;;;;;;;5087251;28;20190;-81
2023/02/15 00:12:50;;;;;;;;;;;;;;;;;;5093107;27;19939;-82
2023/02/15 00:15:16;;;;;;;;;;;;;;;;;;5090255;28;19928;-82
2023/02/15 00:17:42;;;;;;;;;;;;;;;;;;5092805;27;19946;-83
2023/02/15 00:20:08;;;;;;;;;;;;;;;;;;5086882;27;20305;-84
2023/02/15 00:22:34;;;;;;;;;;;;;;;;;;5080957;27;19980;-83
2023/02/15 00:25:00;;;;;;;;;;;;;;;;;;5110385;27;19943;-84
2023/02/15 00:27:26;;;;;;;;;;;;;;;;;;5095244;27;20275;-83
2023/02/15 00:29:52;;;;;;;;;;;;;;;;;;5095346;27;19927;-82
2023/02/15 00:32:18;;;;;;;;;;;;;;;;;;5093469;27;20421;-83
2023/02/15 00:34:44;;;;;;;;;;;;;;;;;;5113835;27;19920;-84
2023/02/15 00:37:09;;;;;;;;;;;;;;;;;;5097165;27;20117;-82
2023/02/15 00:39:35;;;;;;;;;;;;;;;;;;5094077;27;19924;-83
2023/02/15 00:42:01;;;;;;;;;;;;;;;;;;5092655;27;19966;-82
2023/02/15 00:44:27;;;;;;;;;;;;;;;;;;5123233;27;19919;-84
2023/02/15 00:46:53;;;;;;;;;;;;;;;;;;5104636;27;19920;-82
2023/02/15 00:49:19;;;;;;;;;;;;;;;;;;5090355;27;20032;-82
2023/02/15 00:51:45;;;;;;;;;;;;;;;;;;5101878;27;19928;-82
2023/02/15 00:54:11;;;;;;;;;;;;;;;;;;5102998;27;19919;-82
2023/02/15 00:56:37;;;;;;;;;;;;;;;;;;5091021;27;19920;-82
2023/02/15 00:59:03;;;;;;;;;;;;;;;;;;5088946;27;19928;-85
2023/02/15 01:01:29;;;;;;;;;;;;;;;;;;5087416;27;19920;-81
2023/02/15 01:03:55;;;;;;;;;;;;;;;;;;5092858;27;20293;-84
2023/02/15 01:06:21;;;;;;;;;;;;;;;;;;5100151;27;19945;-84
2023/02/15 01:08:47;;;;;;;;;;;;;;;;;;5094704;27;19962;-85
2023/02/15 01:11:12;;;;;;;;;;;;;;;;;;5102249;27;19954;-82
2023/02/15 01:13:38;;;;;;;;;;;;;;;;;;5115894;27;19923;-85
2023/02/15 01:16:04;;;;;;;;;;;;;;;;;;5087931;27;20011;-82
2023/02/15 01:18:30;;;;;;;;;;;;;;;;;;5102008;27;19923;-82
2023/02/15 01:20:57;;;;;;;;;;;;;;;;;;5096637;27;19931;-84
2023/02/15 01:23:23;;;;;;;;;;;;;;;;;;5084485;27;20270;-81
2023/02/15 01:25:49;;;;;;;;;;;;;;;;;;5099600;27;20064;-82
2023/02/15 01:28:14;;;;;;;;;;;;;;;;;;5083920;27;19966;-85
2023/02/15 01:30:40;;;;;;;;;;;;;;;;;;5098462;27;19923;-82
2023/02/15 01:33:06;;;;;;;;;;;;;;;;;;5086108;27;19928;-82
2023/02/15 01:35:32;;;;;;;;;;;;;;;;;;5096519;27;19928;-86
2023/02/15 01:37:58;;;;;;;;;;;;;;;;;;5094110;27;19987;-85
2023/02/15 01:40:24;;;;;;;;;;;;;;;;;;5095375;27;20120;-81
2023/02/15 01:42:50;;;;;;;;;;;;;;;;;;5109827;27;20454;-82
2023/02/15 01:45:16;;;;;;;;;;;;;;;;;;5085676;27;20116;-82
2023/02/15 01:47:43;;;;;;;;;;;;;;;;;;5094033;27;20367;-82
2023/02/15 01:50:09;;;;;;;;;;;;;;;;;;5085575;27;19926;-84
2023/02/15 01:52:35;;;;;;;;;;;;;;;;;;5083257;27;19923;-83
2023/02/15 01:55:02;;;;;;;;;;;;;;;;;;5099725;27;20147;-81
2023/02/15 01:57:28;;;;;;;;;;;;;;;;;;5090529;27;19927;-83
2023/02/15 01:59:54;;;;;;;;;;;;;;;;;;5091547;27;20376;-84
2023/02/15 02:02:27;;;;;;;;;;;;;;;;;;5082605;27;19945;-83
2023/02/15 02:04:53;;;;;;;;;;;;;;;;;;5083015;27;19923;-82
2023/02/15 02:07:18;;;;;;;;;;;;;;;;;;5081571;27;19976;-81
2023/02/15 02:09:44;;;;;;;;;;;;;;;;;;5098371;27;19928;-81
2023/02/15 02:12:10;;;;;;;;;;;;;;;;;;5095469;27;19923;-83
2023/02/15 02:14:36;;;;;;;;;;;;;;;;;;5078759;27;20355;-84
2023/02/15 02:17:02;;;;;;;;;;;;;;;;;;5092500;27;19919;-81
2023/02/15 02:19:28;;;;;;;;;;;;;;;;;;5095041;27;19983;-85
2023/02/15 02:21:54;;;;;;;;;;;;;;;;;;5099308;27;20009;-81
2023/02/15 02:24:20;;;;;;;;;;;;;;;;;;5080758;27;19939;-85
2023/02/15 02:26:46;;;;;;;;;;;;;;;;;;5089176;27;19923;-82
2023/02/15 02:29:12;;;;;;;;;;;;;;;;;;5092725;27;19931;-85
2023/02/15 02:31:38;;;;;;;;;;;;;;;;;;5097356;27;19919;-86
2023/02/15 02:34:03;;;;;;;;;;;;;;;;;;5093024;27;20373;-83
2023/02/15 02:36:29;;;;;;;;;;;;;;;;;;5092232;27;20301;-85
2023/02/15 02:38:55;;;;;;;;;;;;;;;;;;5079645;27;20481;-83
2023/02/15 02:41:21;;;;;;;;;;;;;;;;;;5090505;27;20370;-87
2023/02/15 02:43:47;;;;;;;;;;;;;;;;;;5070451;27;19982;-81
2023/02/15 02:46:13;;;;;;;;;;;;;;;;;;5091819;27;20509;-82
2023/02/15 02:48:39;;;;;;;;;;;;;;;;;;5078164;27;19931;-85
2023/02/15 02:51:05;;;;;;;;;;;;;;;;;;5086502;27;20007;-81
2023/02/15 02:53:31;;;;;;;;;;;;;;;;;;5090971;27;19947;-83
2023/02/15 02:55:57;;;;;;;;;;;;;;;;;;5079281;27;19931;-81
2023/02/15 02:58:23;;;;;;;;;;;;;;;;;;5104786;27;20030;-84
2023/02/15 03:00:49;;;;;;;;;;;;;;;;;;5082011;27;20383;-83
2023/02/15 03:03:15;;;;;;;;;;;;;;;;;;5092749;27;19934;-82
2023/02/15 03:05:41;;;;;;;;;;;;;;;;;;5078095;27;20466;-82
2023/02/15 03:08:09;;;;;;;;;;;;;;;;;;5081135;27;19932;-82
2023/02/15 03:10:35;;;;;;;;;;;;;;;;;;5078552;27;19944;-82
2023/02/15 03:13:01;;;;;;;;;;;;;;;;;;5077040;27;20444;-82
2023/02/15 03:16:25;;;;;;;;;;;;;;;;;;5094248;27;19919;-83
2023/02/15 03:18:13;;;;;;;;;;;;;;;;;;5088176;27;19923;-83
2023/02/15 03:20:39;;;;;;;;;;;;;;;;;;5079287;27;19965;-86
2023/02/15 03:23:05;;;;;;;;;;;;;;;;;;5071069;27;19927;-85
2023/02/15 03:25:30;;;;;;;;;;;;;;;;;;5087301;27;19919;-86
2023/02/15 03:27:56;;;;;;;;;;;;;;;;;;5082481;27;20154;-85
2023/02/15 03:30:23;;;;;;;;;;;;;;;;;;5086677;27;19927;-85
2023/02/15 03:32:48;;;;;;;;;;;;;;;;;;5079504;27;19920;-85
2023/02/15 03:35:14;;;;;;;;;;;;;;;;;;5081895;27;19930;-84
2023/02/15 03:37:40;;;;;;;;;;;;;;;;;;5085100;28;19971;-82
2023/02/15 03:42:51;;;;;;;;;;;;;;;;;;5096258;27;20014;-86
2023/02/15 03:45:17;;;;;;;;;;;;;;;;;;5097051;28;20019;-86
2023/02/15 03:47:43;;;;;;;;;;;;;;;;;;5088793;27;19924;-83
2023/02/15 03:51:33;;;;;;;;;;;;;;;;;;5078491;27;19919;-83
2023/02/15 03:52:55;;;;;;;;;;;;;;;;;;5087340;27;19927;-82
2023/02/15 03:55:21;;;;;;;;;;;;;;;;;;5085180;27;20440;-82
2023/02/15 04:03:27;;;;;;;;;;;;;;;;;;5101077;27;19927;-80
2023/02/15 04:05:53;;;;;;;;;;;;;;;;;;5095852;27;19968;-83
2023/02/15 04:08:19;;;;;;;;;;;;;;;;;;5087393;27;20409;-84
2023/02/15 04:10:55;;;;;;;;;;;;;;;;;;5093654;27;19919;-84
2023/02/15 04:13:21;;;;;;;;;;;;;;;;;;5100784;27;19919;-81
2023/02/15 04:16:03;;;;;;;;;;;;;;;;;;5083102;27;19952;-81
2023/02/15 04:26:43;;;;;;;;;;;;;;;;;;5098461;27;20056;-80
2023/02/15 04:29:09;;;;;;;;;;;;;;;;;;5110107;27;21512;-84
2023/02/15 04:31:35;;;;;;;;;;;;;;;;;;5096004;27;20278;-81
2023/02/15 04:34:01;;;;;;;;;;;;;;;;;;5100833;27;19926;-80
2023/02/15 04:36:27;;;;;;;;;;;;;;;;;;5083802;27;19919;-82
2023/02/15 04:38:53;;;;;;;;;;;;;;;;;;5078984;27;20018;-84
2023/02/15 04:41:18;;;;;;;;;;;;;;;;;;5092272;27;20013;-84
2023/02/15 04:43:44;;;;;;;;;;;;;;;;;;5094952;27;20019;-84
2023/02/15 04:46:10;;;;;;;;;;;;;;;;;;5084297;27;19931;-80
2023/02/15 04:48:36;;;;;;;;;;;;;;;;;;5109035;27;19923;-84
2023/02/15 04:51:02;;;;;;;;;;;;;;;;;;5097415;27;20002;-81
2023/02/15 04:53:28;;;;;;;;;;;;;;;;;;5095416;27;20385;-85
2023/02/15 04:55:54;;;;;;;;;;;;;;;;;;5086362;27;19920;-81
2023/02/15 04:58:20;;;;;;;;;;;;;;;;;;5100510;27;19926;-81
2023/02/15 05:00:46;;;;;;;;;;;;;;;;;;5091991;27;20025;-81
2023/02/15 05:03:12;;;;;;;;;;;;;;;;;;5091928;27;19951;-85
2023/02/15 05:05:38;;;;;;;;;;;;;;;;;;5104126;22;19997;-80
2023/02/15 05:08:04;;;;;;;;;;;;;;;;;;5042991;28;19932;-81
2023/02/15 05:10:30;;;;;;;;;;;;;;;;;;5060514;28;19942;-80
2023/02/15 05:12:55;;;;;;;;;;;;;;;;;;5067729;28;19928;-81
2023/02/15 05:15:21;;;;;;;;;;;;;;;;;;5051540;28;19929;-81
2023/02/15 05:17:47;;;;;;;;;;;;;;;;;;5065084;28;19920;-81
2023/02/15 05:20:13;;;;;;;;;;;;;;;;;;5066826;28;19948;-80
2023/02/15 05:22:40;;;;;;;;;;;;;;;;;;5066628;28;19928;-81
2023/02/15 05:30:36;;;;;;;;;;;;;;;;;;5055930;28;19928;-81
2023/02/15 05:33:02;;;;;;;;;;;;;;;;;;5038270;28;19920;-80
2023/02/15 05:35:27;;;;;;;;;;;;;;;;;;5049430;28;19981;-81
2023/02/15 05:37:53;;;;;;;;;;;;;;;;;;5037853;28;19935;-81
2023/02/15 05:40:19;;;;;;;;;;;;;;;;;;5041074;28;20418;-81
2023/02/15 05:42:45;;;;;;;;;;;;;;;;;;5045555;28;20299;-81
2023/02/15 05:45:11;;;;;;;;;;;;;;;;;;5039703;28;19920;-81
2023/02/15 05:47:37;;;;;;;;;;;;;;;;;;5051246;28;19935;-81
2023/02/15 05:50:03;;;;;;;;;;;;;;;;;;5055964;28;19928;-81
2023/02/15 05:52:29;;;;;;;;;;;;;;;;;;5050599;28;19935;-81
2023/02/15 05:54:55;;;;;;;;;;;;;;;;;;5051607;28;19927;-81
2023/02/15 05:57:21;;;;;;;;;;;;;;;;;;5051767;28;19936;-81
2023/02/15 05:59:47;;;;;;;;;;;;;;;;;;5040790;28;20344;-81
2023/02/15 06:02:13;;;;;;;;;;;;;;;;;;5040034;28;19934;-81
2023/02/15 06:04:39;;;;;;;;;;;;;;;;;;5039453;28;20417;-82
2023/02/15 06:07:04;;;;;;;;;;;;;;;;;;5038618;28;19964;-81
2023/02/15 06:09:30;;;;;;;;;;;;;;;;;;5027242;28;20453;-82
2023/02/15 06:11:56;;;;;;;;;;;;;;;;;;5048229;28;20050;-82
2023/02/15 06:14:22;;;;;;;;;;;;;;;;;;5051120;28;19955;-82
2023/02/15 06:16:48;;;;;;;;;;;;;;;;;;5056486;28;20390;-82
2023/02/15 06:19:14;;;;;;;;;;;;;;;;;;5058044;28;19998;-81
2023/02/15 06:21:40;;;;;;;;;;;;;;;;;;5042728;28;19972;-82
2023/02/15 06:24:06;;;;;;;;;;;;;;;;;;5047175;28;19928;-81
2023/02/15 06:26:32;;;;;;;;;;;;;;;;;;5044137;28;20043;-82
2023/02/15 06:28:58;;;;;;;;;;;;;;;;;;5043508;28;20001;-82
2023/02/15 06:31:24;;;;;;;;;;;;;;;;;;5057261;28;19927;-82
2023/02/15 06:33:50;;;;;;;;;;;;;;;;;;5058404;28;20049;-82
2023/02/15 06:36:16;;;;;;;;;;;;;;;;;;5056737;28;19935;-81
2023/02/15 06:38:42;;;;;;;;;;;;;;;;;;5028078;28;19939;-82
2023/02/15 06:41:08;;;;;;;;;;;;;;;;;;5061920;28;20334;-82
2023/02/15 06:43:34;;;;;;;;;;;;;;;;;;5051587;28;20405;-82
2023/02/15 06:46:00;;;;;;;;;;;;;;;;;;5050933;28;19920;-82
2023/02/15 06:48:26;;;;;;;;;;;;;;;;;;5040977;28;20119;-81
2023/02/15 06:50:52;;;;;;;;;;;;;;;;;;5048994;28;19950;-82
2023/02/15 06:53:17;;;;;;;;;;;;;;;;;;5049441;28;19920;-82
2023/02/15 06:55:43;;;;;;;;;;;;;;;;;;5048641;28;19932;-81
2023/02/15 06:58:09;;;;;;;;;;;;;;;;;;5069635;28;19920;-81
2023/02/15 07:00:35;;;;;;;;;;;;;;;;;;5040758;28;20001;-81
2023/02/15 07:03:02;;;;;;;;;;;;;;;;;;5057593;28;20603;-82
2023/02/15 07:05:31;;;;;;;;;;;;;;;;;;5042888;28;19920;-82
2023/02/15 07:07:57;;;;;;;;;;;;;;;;;;5051030;28;20209;-82
2023/02/15 07:10:23;;;;;;;;;;;;;;;;;;5037235;28;19936;-81
2023/02/15 07:12:49;;;;;;;;;;;;;;;;;;5047352;28;20010;-82
2023/02/15 07:15:15;;;;;;;;;;;;;;;;;;5063422;28;19955;-82
2023/02/15 07:17:41;;;;;;;;;;;;;;;;;;5052398;28;19920;-81
2023/02/15 07:20:07;;;;;;;;;;;;;;;;;;5050346;28;19992;-82
2023/02/15 07:22:33;;;;;;;;;;;;;;;;;;5086951;28;19921;-82
2023/02/15 07:24:59;;;;;;;;;;;;;;;;;;5051073;28;19924;-82
2023/02/15 07:27:25;;;;;;;;;;;;;;;;;;5056244;28;20238;-82
2023/02/15 07:29:51;;;;;;;;;;;;;;;;;;5066847;28;19928;-82
2023/02/15 07:32:17;;;;;;;;;;;;;;;;;;5053169;28;19956;-82
2023/02/15 07:34:43;;;;;;;;;;;;;;;;;;5050283;28;19921;-82
2023/02/15 07:37:09;;;;;;;;;;;;;;;;;;5051656;28;19935;-82
2023/02/15 07:39:35;;;;;;;;;;;;;;;;;;5046353;28;20026;-82
2023/02/15 07:42:01;;;;;;;;;;;;;;;;;;5045103;28;20011;-82
2023/02/15 07:44:27;;;;;;;;;;;;;;;;;;5043456;28;19955;-82
2023/02/15 07:46:53;;;;;;;;;;;;;;;;;;5054879;28;20438;-81
2023/02/15 07:49:19;;;;;;;;;;;;;;;;;;5060925;28;19970;-81
2023/02/15 07:51:45;;;;;;;;;;;;;;;;;;5059114;28;20061;-82
2023/02/15 07:54:11;;;;;;;;;;;;;;;;;;5050855;28;20148;-81
2023/02/15 07:56:38;;;;;;;;;;;;;;;;;;5044286;28;19935;-82
2023/02/15 07:59:04;;;;;;;;;;;;;;;;;;5051048;28;19924;-82
2023/02/15 08:01:30;;;;;;;;;;;;;;;;;;5040337;28;19928;-81
2023/02/15 08:03:56;;;;;;;;;;;;;;;;;;5041789;28;20337;-81
2023/02/15 08:06:22;;;;;;;;;;;;;;;;;;5048223;28;20441;-81
2023/02/15 08:08:48;;;;;;;;;;;;;;;;;;5048841;28;19927;-81
2023/02/15 08:11:33;;;;;;;;;;;;;;;;;;5039496;28;20019;-82
2023/02/15 08:13:59;;;;;;;;;;;;;;;;;;5052456;28;20399;-81
2023/02/15 08:16:25;;;;;;;;;;;;;;;;;;5050805;28;19924;-81
2023/02/15 08:18:51;;;;;;;;;;;;;;;;;;5036102;28;20276;-81
2023/02/15 08:21:17;;;;;;;;;;;;;;;;;;5042093;28;19920;-82
2023/02/15 08:23:43;;;;;;;;;;;;;;;;;;5070091;28;20133;-81
2023/02/15 08:26:09;;;;;;;;;;;;;;;;;;5030069;28;19973;-81
2023/02/15 08:28:35;;;;;;;;;;;;;;;;;;5043197;28;19990;-81
2023/02/15 08:31:01;;;;;;;;;;;;;;;;;;5056136;28;20023;-81
2023/02/15 08:33:28;;;;;;;;;;;;;;;;;;5035608;28;20027;-81
2023/02/15 08:35:54;;;;;;;;;;;;;;;;;;5053855;28;20371;-81
2023/02/15 08:38:20;;;;;;;;;;;;;;;;;;5042594;28;19934;-81
2023/02/15 08:40:46;;;;;;;;;;;;;;;;;;5044302;28;20307;-82
2023/02/15 08:43:12;;;;;;;;;;;;;;;;;;5043119;28;20399;-81
2023/02/15 08:45:38;;;;;;;;;;;;;;;;;;5052991;28;19927;-82
2023/02/15 08:48:04;;;;;;;;;;;;;;;;;;5038833;28;20031;-81
2023/02/15 08:50:30;;;;;;;;;;;;;;;;;;5035505;28;20011;-82
2023/02/15 08:52:56;;;;;;;;;;;;;;;;;;5038495;28;20301;-81
2023/02/15 08:55:22;;;;;;;;;;;;;;;;;;5055911;28;19928;-82
2023/02/15 08:57:48;;;;;;;;;;;;;;;;;;5033637;28;20011;-81
2023/02/15 09:00:13;;;;;;;;;;;;;;;;;;5037109;28;20010;-82
2023/02/15 09:02:39;;;;;;;;;;;;;;;;;;5053099;28;19967;-82
2023/02/15 09:05:05;;;;;;;;;;;;;;;;;;5051542;28;19931;-82
2023/02/15 09:07:31;;;;;;;;;;;;;;;;;;5036613;28;19920;-82
2023/02/15 09:09:57;;;;;;;;;;;;;;;;;;5038888;28;19940;-82
2023/02/15 09:12:23;;;;;;;;;;;;;;;;;;5067492;28;19920;-82
2023/02/15 09:14:49;;;;;;;;;;;;;;;;;;5054220;28;19939;-82
2023/02/15 09:17:15;;;;;;;;;;;;;;;;;;5054238;28;19921;-83
2023/02/15 09:19:41;;;;;;;;;;;;;;;;;;5053860;28;20205;-82
2023/02/15 09:22:07;;;;;;;;;;;;;;;;;;5056352;28;20322;-83
2023/02/15 09:24:34;;;;;;;;;;;;;;;;;;5057318;28;19973;-82
2023/02/15 09:26:59;;;;;;;;;;;;;;;;;;5043319;28;19928;-83
2023/02/15 09:29:25;;;;;;;;;;;;;;;;;;5043273;28;19990;-83
2023/02/15 09:31:53;;;;;;;;;;;;;;;;;;5057835;28;19924;-82
2023/02/15 09:34:19;;;;;;;;;;;;;;;;;;5051292;28;19956;-82
2023/02/15 09:36:45;;;;;;;;;;;;;;;;;;5039677;28;20259;-83
2023/02/15 09:39:11;;;;;;;;;;;;;;;;;;5038879;28;20253;-83
2023/02/15 09:41:37;;;;;;;;;;;;;;;;;;5040765;28;20395;-83
2023/02/15 09:44:02;;;;;;;;;;;;;;;;;;5053974;28;19954;-82
2023/02/15 09:46:28;;;;;;;;;;;;;;;;;;5048131;28;19920;-83
2023/02/15 09:48:54;;;;;;;;;;;;;;;;;;5046320;28;19931;-82
2023/02/15 09:51:20;;;;;;;;;;;;;;;;;;5053178;28;19970;-83
2023/02/15 09:53:46;;;;;;;;;;;;;;;;;;5064576;28;19924;-82
2023/02/15 09:56:12;;;;;;;;;;;;;;;;;;5057152;28;19932;-83
2023/02/15 09:58:38;;;;;;;;;;;;;;;;;;5053659;28;19928;-83
2023/02/15 10:01:04;;;;;;;;;;;;;;;;;;5039033;28;19920;-83
2023/02/15 10:03:30;;;;;;;;;;;;;;;;;;5056336;28;20433;-83
2023/02/15 10:05:56;;;;;;;;;;;;;;;;;;5043535;28;19928;-83
2023/02/15 10:08:22;;;;;;;;;;;;;;;;;;5049671;28;20029;-83
2023/02/15 10:10:48;;;;;;;;;;;;;;;;;;5047731;28;19920;-82
2023/02/15 10:13:14;;;;;;;;;;;;;;;;;;5046414;28;19934;-82
2023/02/15 10:15:41;;;;;;;;;;;;;;;;;;5057218;28;20002;-82
2023/02/15 10:18:07;;;;;;;;;;;;;;;;;;5038301;28;19935;-82
2023/02/15 10:20:33;;;;;;;;;;;;;;;;;;5077081;28;20357;-84
2023/02/15 10:22:58;;;;;;;;;;;;;;;;;;5073402;28;20820;-84
2023/02/15 10:25:25;;;;;;;;;;;;;;;;;;5037657;28;20683;-83
2023/02/15 10:27:51;;;;;;;;;;;;;;;;;;5053720;28;19956;-84
2023/02/15 10:30:17;;;;;;;;;;;;;;;;;;5073261;28;19974;-85
2023/02/15 10:32:43;;;;;;;;;;;;;;;;;;5037148;28;19920;-83
2023/02/15 10:35:08;;;;;;;;;;;;;;;;;;5050265;28;19925;-83
2023/02/15 10:37:35;;;;;;;;;;;;;;;;;;5047089;28;20007;-83
2023/02/15 10:40:00;;;;;;;;;;;;;;;;;;5034508;28;19920;-83
2023/02/15 10:42:26;;;;;;;;;;;;;;;;;;5044995;28;20001;-83
2023/02/15 10:44:52;;;;;;;;;;;;;;;;;;5057741;28;19920;-84
2023/02/15 10:47:18;;;;;;;;;;;;;;;;;;5039143;28;19924;-82
2023/02/15 10:49:44;;;;;;;;;;;;;;;;;;5035191;28;20110;-83
2023/02/15 10:52:10;;;;;;;;;;;;;;;;;;5040994;28;19943;-83
2023/02/15 10:54:36;;;;;;;;;;;;;;;;;;5043608;28;20388;-83
2023/02/15 10:57:02;;;;;;;;;;;;;;;;;;5039696;28;20432;-83
2023/02/15 10:59:28;;;;;;;;;;;;;;;;;;5052914;28;20011;-83
2023/02/15 11:01:54;;;;;;;;;;;;;;;;;;5034093;28;20027;-82
2023/02/15 11:04:20;;;;;;;;;;;;;;;;;;5055330;28;19971;-83
2023/02/15 11:06:48;;;;;;;;;;;;;;;;;;5051120;28;19928;-83
2023/02/15 11:09:15;;;;;;;;;;;;;;;;;;5033909;28;20023;-84
2023/02/15 11:11:44;;;;;;;;;;;;;;;;;;5036399;28;20338;-82
2023/02/15 11:14:10;;;;;;;;;;;;;;;;;;5039496;28;19955;-83
2023/02/15 11:16:36;;;;;;;;;;;;;;;;;;5045786;28;19974;-82
2023/02/15 11:19:03;;;;;;;;;;;;;;;;;;5042365;28;19939;-84
2023/02/15 11:21:29;;;;;;;;;;;;;;;;;;5043733;28;19963;-82
2023/02/15 11:23:55;;;;;;;;;;;;;;;;;;5053677;28;19974;-81
2023/02/15 11:26:20;;;;;;;;;;;;;;;;;;5054300;28;19945;-83
2023/02/15 11:28:46;;;;;;;;;;;;;;;;;;5051664;28;19928;-82
2023/02/15 11:31:12;;;;;;;;;;;;;;;;;;5053676;28;20002;-82
2023/02/15 11:33:38;;;;;;;;;;;;;;;;;;5046585;28;19924;-80
2023/02/15 11:36:04;;;;;;;;;;;;;;;;;;5072275;28;20294;-81
2023/02/15 11:38:30;;;;;;;;;;;;;;;;;;5054036;28;19934;-83
2023/02/15 11:40:57;;;;;;;;;;;;;;;;;;5050499;28;19924;-82
2023/02/15 11:43:22;;;;;;;;;;;;;;;;;;5034420;28;19920;-82
2023/02/15 11:45:48;;;;;;;;;;;;;;;;;;5038364;28;20397;-83
2023/02/15 11:48:14;;;;;;;;;;;;;;;;;;5038272;28;19924;-81
2023/02/15 11:50:40;;;;;;;;;;;;;;;;;;5056807;28;19989;-82
2023/02/15 11:53:06;;;;;;;;;;;;;;;;;;5056973;28;20019;-83
2023/02/15 11:55:34;;;;;;;;;;;;;;;;;;5050603;28;19959;-82
2023/02/15 11:58:00;;;;;;;;;;;;;;;;;;5038742;28;20333;-83
2023/02/15 12:00:26;;;;;;;;;;;;;;;;;;5053522;28;19928;-82
2023/02/15 12:02:52;;;;;;;;;;;;;;;;;;5055899;28;19924;-82
2023/02/15 12:05:22;;;;;;;;;;;;;;;;;;5039192;28;20324;-83
2023/02/15 12:07:48;;;;;;;;;;;;;;;;;;5041856;28;20003;-82
2023/02/15 12:10:16;;;;;;;;;;;;;;;;;;5033792;28;19953;-80
2023/02/15 12:12:42;;;;;;;;;;;;;;;;;;5035559;28;19925;-81
2023/02/15 12:15:08;;;;;;;;;;;;;;;;;;5050664;28;20011;-82
2023/02/15 12:17:34;;;;;;;;;;;;;;;;;;5076947;28;20007;-80
2023/02/15 12:19:59;;;;;;;;;;;;;;;;;;5042174;28;20363;-82
2023/02/15 12:22:25;;;;;;;;;;;;;;;;;;5041960;28;20367;-83
2023/02/15 12:24:51;;;;;;;;;;;;;;;;;;5043720;28;20368;-83
2023/02/15 12:27:17;;;;;;;;;;;;;;;;;;5041459;28;20553;-83
2023/02/15 12:29:43;;;;;;;;;;;;;;;;;;5056748;28;19989;-82
2023/02/15 12:32:09;;;;;;;;;;;;;;;;;;5042884;28;20025;-82
2023/02/15 12:34:35;;;;;;;;;;;;;;;;;;5042361;28;19931;-82
2023/02/15 12:37:02;;;;;;;;;;;;;;;;;;5054792;28;19927;-83
2023/02/15 12:39:27;;;;;;;;;;;;;;;;;;5052128;28;19920;-83
2023/02/15 12:41:53;;;;;;;;;;;;;;;;;;5071031;28;19920;-81
2023/02/15 12:44:19;;;;;;;;;;;;;;;;;;5041321;28;19928;-82
2023/02/15 12:46:45;;;;;;;;;;;;;;;;;;5054695;28;19931;-83
2023/02/15 12:49:11;;;;;;;;;;;;;;;;;;5035096;28;20290;-83
2023/02/15 12:51:37;;;;;;;;;;;;;;;;;;5051681;28;19977;-83
2023/02/15 12:54:04;;;;;;;;;;;;;;;;;;5069576;28;19930;-83
2023/02/15 12:56:30;;;;;;;;;;;;;;;;;;5039022;28;20394;-82
2023/02/15 12:58:56;;;;;;;;;;;;;;;;;;5035871;28;19966;-81
2023/02/15 13:01:24;;;;;;;;;;;;;;;;;;5039516;28;19920;-83
2023/02/15 13:03:50;;;;;;;;;;;;;;;;;;5049408;28;19931;-83
2023/02/15 13:06:15;;;;;;;;;;;;;;;;;;5048485;28;20326;-82
2023/02/15 13:08:49;;;;;;;;;;;8.30;99.90;;;;;;5044549;28;19939;-83
2023/02/15 13:11:20;;;;;;;;;;;11.00;99.90;;;;;;5051576;28;20329;-82
2023/02/15 13:13:52;;;;;;;;;;;11.00;99.90;;;;;;5043110;28;19924;-82
2023/02/15 13:16:19;;;;;;;;;;;11.00;99.90;;;;;;5032576;28;20375;-83
2023/02/15 13:18:46;;;;;;;;;;;11.00;99.90;;;;;;5056312;28;20027;-83
2023/02/15 13:21:20;;;;;;;;;;;11.00;99.90;;;;;;5030108;28;20536;-83
2023/02/15 13:24:01;;;;;;;;;;;10.90;99.90;;;;;;5050116;28;21375;-81
2023/02/15 13:26:29;;;;;;;;;;;10.90;99.90;;;;;;5053028;28;19928;-82
2023/02/15 13:28:56;;;;;;;;;;;10.90;99.90;;;;;;5037805;28;19931;-82
2023/02/15 13:31:24;;;;;;;;;;;10.90;99.90;;;;;;5032777;28;20594;-82
2023/02/15 13:33:59;;;;;;;;;;;10.90;99.90;;;;;;5049609;28;20055;-82
2023/02/15 13:36:41;;;;;;;;;;;10.80;99.90;;;;;;5036498;28;19927;-82
2023/02/15 13:39:10;;;;;;;;;;;10.80;99.90;;;;;;5051717;28;20039;-81
2023/02/15 13:41:36;;;;;;;;;;;10.80;99.90;;;;;;5033870;28;19925;-82
2023/02/15 13:44:02;;;;;;;;;;;10.70;99.90;;;;;;5050243;28;19920;-82
2023/02/15 13:46:42;;;;;;;;;;;10.70;99.90;;;;;;5037996;28;19920;-82
2023/02/15 13:49:09;;;;;;;;;;;10.70;99.90;;;;;;5045433;28;20392;-82
2023/02/15 13:51:41;;;;;;;;;;;10.60;99.90;;;;;;5046013;28;19965;-81
2023/02/15 13:54:22;;;;;;;;;;;10.60;99.90;;;;;;5033609;28;20289;-82
2023/02/15 13:56:48;;;;;;;;;;;10.60;99.90;;;;;;5050367;28;19939;-81
2023/02/15 13:59:18;;;;;;;;;;;10.60;99.90;;;;;;5047274;28;20397;-82
2023/02/15 14:01:45;;;;;;;;;;;10.50;99.90;;;;;;5037615;28;19920;-82
2023/02/15 14:04:14;;;;;;;;;;;10.50;99.90;;;;;;5030382;28;19981;-82
2023/02/15 14:06:52;;;;;;;;;;;10.50;99.90;;;;;;5047487;28;19967;-81
2023/02/15 14:09:17;;;;;;;;;;;10.50;99.90;;;;;;5050715;28;19924;-82
2023/02/15 14:11:43;;;;;;;;;;;10.60;99.90;;;;;;5073501;28;19930;-82
2023/02/15 14:14:27;;;;;;;;;;;10.60;99.90;;;;;;5044232;28;20004;-82
2023/02/15 14:16:53;;;;;;;;;;;10.60;99.90;;;;;;5064056;28;19931;-83
2023/02/15 14:19:21;;;;;;;;;;;10.60;99.90;;;;;;5038903;28;19921;-81
2023/02/15 14:21:50;;;;;;;;;;;10.60;99.90;;;;;;5041125;28;20073;-82
2023/02/15 14:24:32;;;;;;;;;;;10.60;99.90;;;;;;5047836;28;20191;-82
2023/02/15 14:26:58;;;;;;;;;;;10.60;99.90;;;;;;5059578;28;19920;-82
2023/02/15 14:29:32;;;;;;;;;;;10.60;99.90;;;;;;5058360;28;19924;-81
2023/02/15 14:32:00;;;;;;;;;;;10.60;99.90;;;;;;5050345;28;20382;-81
2023/02/15 14:34:30;;;;;;;;;;;10.60;99.90;;;;;;5030769;28;20208;-80
2023/02/15 14:36:57;;;;;;;;;;;10.60;99.90;;;;;;5028675;28;19924;-82
2023/02/15 14:42:10;;;;;;;;;;;10.50;99.90;;;;;;5049024;28;19927;-81
2023/02/15 14:44:38;;;;;;;;;;;10.60;99.90;;;;;;5029013;28;19974;-81
2023/02/15 14:47:05;;;;;;;;;;;10.60;99.90;;;;;;5049706;28;19927;-81
2023/02/15 14:49:40;;;;;;;;;;;10.50;99.90;;;;;;5036444;28;19963;-82
2023/02/15 14:52:08;;;;;;;;;;;10.50;99.90;;;;;;5033139;28;20029;-82
2023/02/15 14:54:33;;;;;;;;;;;10.50;99.90;;;;;;5040683;28;19932;-82
2023/02/15 14:57:02;;;;;;;;;;;10.50;99.90;;;;;;5052003;28;20037;-82
2023/02/15 14:59:46;;;;;;;;;;;10.40;99.90;;;;;;5051059;28;19928;-81
2023/02/15 15:02:15;;;;;;;;;;;10.40;99.90;;;;;;5040078;28;19986;-82
2023/02/15 15:04:52;;;;;;;;;;;10.40;99.90;;;;;;5039996;28;20037;-81
2023/02/15 15:07:25;;;;;;;;;;;10.40;99.90;;;;;;5039522;28;19933;-82
2023/02/15 15:09:59;;;;;;;;;;;10.40;99.90;;;;;;5033899;28;19928;-81
2023/02/15 15:12:25;;;;;;;;;;;10.40;99.90;;;;;;5038042;28;19978;-82
2023/02/15 15:14:52;;;;;;;;;;;10.40;99.90;;;;;;5077160;28;19924;-82
2023/02/15 15:17:33;;;;;;;;;;;10.30;99.90;;;;;;5037440;28;19996;-82
2023/02/15 15:20:00;;;;;;;;;;;10.30;99.90;;;;;;5051198;28;19920;-81
2023/02/15 15:22:27;;;;;;;;;;;10.30;99.90;;;;;;5032312;28;19924;-82
2023/02/15 15:24:56;;;;;;;;;;;10.30;99.90;;;;;;5038710;28;19927;-81
2023/02/15 15:27:22;;;;;;;;;;;;;;;;;;5041999;28;19921;-82
2023/02/15 15:29:48;;;;;;;;;;;;;;;;;;5039890;28;19936;-82
2023/02/15 15:32:14;;;;;;;;;;;;;;;;;;5052716;28;19928;-82
2023/02/15 15:34:40;;;;;;;;;;;;;;;;;;5043840;28;19925;-82
2023/02/15 15:37:06;;;;;;;;;;;;;;;;;;5047902;28;19931;-82
2023/02/15 15:39:32;;;;;;;;;;;;;;;;;;5060401;28;20038;-81
2023/02/15 15:41:58;;;;;;;;;;;;;;;;;;5046560;28;20424;-81
2023/02/15 15:44:24;;;;;;;;;;;;;;;;;;5065874;28;19908;-80
2023/02/15 15:46:50;;;;;;;;;;;;;;;;;;5048848;28;19924;-81
2023/02/15 15:49:16;;;;;;;;;;;;;;;;;;5046562;28;19928;-81
2023/02/15 15:51:42;;;;;;;;;;;;;;;;;;5061782;28;19924;-81
2023/02/15 15:54:08;;;;;;;;;;;;;;;;;;5080974;28;19920;-81
2023/02/15 15:56:33;;;;;;;;;;;;;;;;;;5053741;28;19991;-80
2023/02/15 15:58:59;;;;;;;;;;;;;;;;;;5054129;28;20325;-81
2023/02/15 16:01:25;;;;;;;;;;;;;;;;;;5044473;28;20363;-79
2023/02/15 16:03:51;;;;;;;;;;;;;;;;;;5040280;28;20443;-82
2023/02/15 16:06:17;;;;;;;;;;;;;;;;;;5059709;28;19955;-82
2023/02/15 16:08:43;;;;;;;;;;;;;;;;;;5038570;28;19972;-81
2023/02/15 16:11:09;;;;;;;;;;;;;;;;;;5042456;28;19986;-80
2023/02/15 16:13:35;;;;;;;;;;;;;;;;;;5040366;28;19921;-81
2023/02/15 16:16:01;;;;;;;;;;;;;;;;;;5046862;28;20416;-81
2023/02/15 16:18:27;;;;;;;;;;;;;;;;;;5048199;28;19924;-81
2023/02/15 16:20:53;;;;;;;;;;;;;;;;;;5052459;28;20026;-82
2023/02/15 16:23:19;;;;;;;;;;;;;;;;;;5047403;28;20011;-81
2023/02/15 16:25:45;;;;;;;;;;;;;;;;;;5049559;28;19920;-81
2023/02/15 16:28:11;;;;;;;;;;;;;;;;;;5048192;28;19959;-81
2023/02/15 16:30:36;;;;;;;;;;;;;;;;;;5049791;28;19935;-81
2023/02/15 16:33:03;;;;;;;;;;;;;;;;;;5057943;28;19924;-82
2023/02/15 16:35:29;;;;;;;;;;;;;;;;;;5064232;28;19920;-82
2023/02/15 16:37:54;;;;;;;;;;;;;;;;;;5080724;28;19928;-81
2023/02/15 16:40:20;;;;;;;;;;;;;;;;;;5051374;28;20009;-80
2023/02/15 16:42:46;;;;;;;;;;;;;;;;;;5045097;28;19956;-81